sensor_id;sensor_type;location;lat;lon;timestamp;pressure;altitude;pressure_sealevel;temperature;humidity
51239;BME280;38154;47.548;18.828;2023-11-21T00:01:59;98301.06;;;4.17;100.00
51239;BME280;38154;47.548;18.828;2023-11-21T00:04:25;98301.19;;;4.23;100.00
51239;BME280;38154;47.548;18.828;2023-11-21T00:06:54;98297.88;;;4.30;100.00
51239;BME280;38154;47.548;18.828;2023-11-21T00:09:20;98304.78;;;4.30;100.00
51239;BME280;38154;47.548;18.828;2023-11-21T00:11:45;98300.97;;;4.11;100.00
51239;BME280;38154;47.548;18.828;2023-11-21T00:14:11;98292.00;;;3.92;100.00
51239;BME280;38154;47.548;18.828;2023-11-21T00:16:37;98290.97;;;3.83;100.00
51239;BME280;38154;47.548;18.828;2023-11-21T00:19:03;98287.44;;;3.78;100.00
51239;BME280;38154;47.548;18.828;2023-11-21T00:21:29;98283.12;;;3.77;100.00
51239;BME280;38154;47.548;18.828;2023-11-21T00:23:55;98296.03;;;3.77;100.00
51239;BME280;38154;47.548;18.828;2023-11-21T00:26:21;98299.22;;;3.67;100.00
51239;BME280;38154;47.548;18.828;2023-11-21T00:28:47;98297.28;;;3.57;100.00
51239;BME280;38154;47.548;18.828;2023-11-21T00:31:12;98292.03;;;3.50;100.00
51239;BME280;38154;47.548;18.828;2023-11-21T00:33:39;98295.28;;;3.43;100.00
51239;BME280;38154;47.548;18.828;2023-11-21T00:36:05;98302.00;;;3.37;100.00
51239;BME280;38154;47.548;18.828;2023-11-21T00:38:36;98299.19;;;3.26;100.00
51239;BME280;38154;47.548;18.828;2023-11-21T00:41:01;98288.72;;;3.18;100.00
51239;BME280;38154;47.548;18.828;2023-11-21T00:43:28;98300.81;;;3.21;100.00
51239;BME280;38154;47.548;18.828;2023-11-21T00:45:54;98305.25;;;3.28;100.00
51239;BME280;38154;47.548;18.828;2023-11-21T00:48:20;98321.09;;;3.45;100.00
51239;BME280;38154;47.548;18.828;2023-11-21T00:50:46;98316.94;;;3.51;100.00
51239;BME280;38154;47.548;18.828;2023-11-21T00:53:11;98318.84;;;3.60;100.00
51239;BME280;38154;47.548;18.828;2023-11-21T00:55:37;98318.47;;;3.43;100.00
51239;BME280;38154;47.548;18.828;2023-11-21T00:58:06;98320.31;;;3.47;100.00
51239;BME280;38154;47.548;18.828;2023-11-21T01:00:35;98309.13;;;3.48;100.00
51239;BME280;38154;47.548;18.828;2023-11-21T01:03:01;98313.41;;;3.46;100.00
51239;BME280;38154;47.548;18.828;2023-11-21T01:05:27;98308.00;;;3.75;100.00
51239;BME280;38154;47.548;18.828;2023-11-21T01:07:53;98299.94;;;4.01;100.00
51239;BME280;38154;47.548;18.828;2023-11-21T01:10:19;98310.41;;;4.10;100.00
51239;BME280;38154;47.548;18.828;2023-11-21T01:12:45;98307.75;;;4.07;100.00
51239;BME280;38154;47.548;18.828;2023-11-21T01:15:11;98311.81;;;3.93;100.00
51239;BME280;38154;47.548;18.828;2023-11-21T01:17:37;98313.97;;;3.72;100.00
51239;BME280;38154;47.548;18.828;2023-11-21T01:20:04;98308.37;;;3.52;100.00
51239;BME280;38154;47.548;18.828;2023-11-21T01:22:38;98299.41;;;3.35;100.00
51239;BME280;38154;47.548;18.828;2023-11-21T01:25:05;98294.84;;;3.23;100.00
51239;BME280;38154;47.548;18.828;2023-11-21T01:27:34;98289.50;;;3.14;100.00
51239;BME280;38154;47.548;18.828;2023-11-21T01:30:00;98290.88;;;3.00;100.00
51239;BME280;38154;47.548;18.828;2023-11-21T01:32:26;98291.53;;;2.91;100.00
51239;BME280;38154;47.548;18.828;2023-11-21T01:34:51;98279.37;;;2.85;100.00
51239;BME280;38154;47.548;18.828;2023-11-21T01:37:17;98273.31;;;2.82;100.00
51239;BME280;38154;47.548;18.828;2023-11-21T01:39:43;98267.12;;;2.76;100.00
51239;BME280;38154;47.548;18.828;2023-11-21T01:42:10;98271.47;;;2.77;100.00
51239;BME280;38154;47.548;18.828;2023-11-21T01:44:39;98268.97;;;2.81;100.00
51239;BME280;38154;47.548;18.828;2023-11-21T01:47:08;98282.62;;;2.78;100.00
51239;BME280;38154;47.548;18.828;2023-11-21T01:49:35;98274.81;;;2.73;100.00
51239;BME280;38154;47.548;18.828;2023-11-21T01:52:02;98272.13;;;2.69;100.00
51239;BME280;38154;47.548;18.828;2023-11-21T01:54:30;98268.59;;;2.65;100.00
51239;BME280;38154;47.548;18.828;2023-11-21T01:57:00;98270.50;;;2.72;100.00
51239;BME280;38154;47.548;18.828;2023-11-21T01:59:35;98263.56;;;2.70;100.00
51239;BME280;38154;47.548;18.828;2023-11-21T02:02:06;98258.41;;;2.68;100.00
51239;BME280;38154;47.548;18.828;2023-11-21T02:04:36;98258.56;;;2.76;100.00
51239;BME280;38154;47.548;18.828;2023-11-21T02:07:02;98261.22;;;2.79;100.00
51239;BME280;38154;47.548;18.828;2023-11-21T02:09:31;98256.97;;;2.81;100.00
51239;BME280;38154;47.548;18.828;2023-11-21T02:11:58;98247.47;;;2.78;100.00
51239;BME280;38154;47.548;18.828;2023-11-21T02:14:25;98250.09;;;2.80;100.00
51239;BME280;38154;47.548;18.828;2023-11-21T02:16:52;98253.44;;;2.77;100.00
51239;BME280;38154;47.548;18.828;2023-11-21T02:19:19;98247.41;;;2.75;100.00
51239;BME280;38154;47.548;18.828;2023-11-21T02:21:52;98251.81;;;2.81;100.00
51239;BME280;38154;47.548;18.828;2023-11-21T02:24:22;98244.31;;;2.90;100.00
51239;BME280;38154;47.548;18.828;2023-11-21T02:26:48;98245.28;;;2.95;100.00
51239;BME280;38154;47.548;18.828;2023-11-21T02:29:18;98249.69;;;3.01;100.00
51239;BME280;38154;47.548;18.828;2023-11-21T02:31:49;98242.16;;;3.09;100.00
51239;BME280;38154;47.548;18.828;2023-11-21T02:34:16;98239.69;;;3.13;100.00
51239;BME280;38154;47.548;18.828;2023-11-21T02:36:42;98238.81;;;3.13;100.00
51239;BME280;38154;47.548;18.828;2023-11-21T02:39:09;98234.53;;;3.15;100.00
51239;BME280;38154;47.548;18.828;2023-11-21T02:41:37;98232.75;;;3.11;100.00
51239;BME280;38154;47.548;18.828;2023-11-21T02:44:04;98230.13;;;3.09;100.00
51239;BME280;38154;47.548;18.828;2023-11-21T02:46:32;98234.41;;;3.07;100.00
51239;BME280;38154;47.548;18.828;2023-11-21T02:49:05;98224.16;;;3.10;100.00
51239;BME280;38154;47.548;18.828;2023-11-21T02:51:33;98231.97;;;3.15;100.00
51239;BME280;38154;47.548;18.828;2023-11-21T02:53:59;98228.50;;;3.13;100.00
51239;BME280;38154;47.548;18.828;2023-11-21T02:56:28;98238.69;;;3.08;100.00
51239;BME280;38154;47.548;18.828;2023-11-21T02:58:55;98236.06;;;3.05;100.00
51239;BME280;38154;47.548;18.828;2023-11-21T03:01:22;98230.81;;;3.01;100.00
51239;BME280;38154;47.548;18.828;2023-11-21T03:03:49;98227.38;;;3.00;100.00
51239;BME280;38154;47.548;18.828;2023-11-21T03:06:19;98225.72;;;3.04;100.00
51239;BME280;38154;47.548;18.828;2023-11-21T03:08:45;98219.78;;;3.08;100.00
51239;BME280;38154;47.548;18.828;2023-11-21T03:11:11;98211.19;;;3.06;100.00
51239;BME280;38154;47.548;18.828;2023-11-21T03:13:41;98198.44;;;3.12;100.00
51239;BME280;38154;47.548;18.828;2023-11-21T03:16:10;98190.97;;;3.24;100.00
51239;BME280;38154;47.548;18.828;2023-11-21T03:18:37;98197.19;;;3.34;100.00
51239;BME280;38154;47.548;18.828;2023-11-21T03:21:04;98191.38;;;3.44;100.00
51239;BME280;38154;47.548;18.828;2023-11-21T03:23:31;98194.84;;;3.46;100.00
51239;BME280;38154;47.548;18.828;2023-11-21T03:25:57;98189.84;;;3.54;100.00
51239;BME280;38154;47.548;18.828;2023-11-21T03:28:25;98182.34;;;3.66;100.00
51239;BME280;38154;47.548;18.828;2023-11-21T03:30:52;98185.13;;;3.77;100.00
51239;BME280;38154;47.548;18.828;2023-11-21T03:33:18;98180.06;;;3.83;100.00
51239;BME280;38154;47.548;18.828;2023-11-21T03:35:44;98174.28;;;3.97;100.00
51239;BME280;38154;47.548;18.828;2023-11-21T03:38:10;98174.59;;;4.14;100.00
51239;BME280;38154;47.548;18.828;2023-11-21T03:40:36;98176.50;;;4.25;100.00
51239;BME280;38154;47.548;18.828;2023-11-21T03:43:02;98163.75;;;4.33;100.00
51239;BME280;38154;47.548;18.828;2023-11-21T03:45:28;98160.38;;;4.39;100.00
51239;BME280;38154;47.548;18.828;2023-11-21T03:47:54;98163.91;;;4.42;100.00
51239;BME280;38154;47.548;18.828;2023-11-21T03:50:20;98163.13;;;4.48;100.00
51239;BME280;38154;47.548;18.828;2023-11-21T03:52:46;98163.25;;;4.57;100.00
51239;BME280;38154;47.548;18.828;2023-11-21T03:55:12;98166.84;;;4.67;100.00
51239;BME280;38154;47.548;18.828;2023-11-21T03:57:38;98180.88;;;4.85;100.00
51239;BME280;38154;47.548;18.828;2023-11-21T04:00:04;98188.78;;;4.95;100.00
51239;BME280;38154;47.548;18.828;2023-11-21T04:02:34;98194.97;;;5.07;100.00
51239;BME280;38154;47.548;18.828;2023-11-21T04:05:00;98199.19;;;5.00;100.00
51239;BME280;38154;47.548;18.828;2023-11-21T04:07:26;98190.41;;;4.89;100.00
51239;BME280;38154;47.548;18.828;2023-11-21T04:09:52;98192.00;;;4.80;100.00
51239;BME280;38154;47.548;18.828;2023-11-21T04:12:19;98203.81;;;4.63;100.00
51239;BME280;38154;47.548;18.828;2023-11-21T04:14:45;98206.25;;;4.55;100.00
51239;BME280;38154;47.548;18.828;2023-11-21T04:17:11;98211.34;;;4.49;100.00
51239;BME280;38154;47.548;18.828;2023-11-21T04:19:37;98218.09;;;4.41;100.00
51239;BME280;38154;47.548;18.828;2023-11-21T04:22:03;98215.38;;;4.35;100.00
51239;BME280;38154;47.548;18.828;2023-11-21T04:24:29;98221.28;;;4.27;100.00
51239;BME280;38154;47.548;18.828;2023-11-21T04:26:55;98224.66;;;4.23;100.00
51239;BME280;38154;47.548;18.828;2023-11-21T04:29:21;98222.91;;;4.21;100.00
51239;BME280;38154;47.548;18.828;2023-11-21T04:31:48;98229.69;;;4.16;100.00
51239;BME280;38154;47.548;18.828;2023-11-21T04:34:15;98229.69;;;4.17;100.00
51239;BME280;38154;47.548;18.828;2023-11-21T04:36:40;98226.19;;;4.14;100.00
51239;BME280;38154;47.548;18.828;2023-11-21T04:39:06;98232.25;;;4.14;100.00
51239;BME280;38154;47.548;18.828;2023-11-21T04:41:32;98230.53;;;4.15;100.00
51239;BME280;38154;47.548;18.828;2023-11-21T04:43:58;98229.56;;;4.09;100.00
51239;BME280;38154;47.548;18.828;2023-11-21T04:46:26;98231.34;;;4.14;100.00
51239;BME280;38154;47.548;18.828;2023-11-21T04:48:55;98243.38;;;4.12;100.00
51239;BME280;38154;47.548;18.828;2023-11-21T04:51:21;98245.91;;;4.10;100.00
51239;BME280;38154;47.548;18.828;2023-11-21T04:53:47;98242.50;;;4.11;100.00
51239;BME280;38154;47.548;18.828;2023-11-21T04:56:13;98236.41;;;4.07;100.00
51239;BME280;38154;47.548;18.828;2023-11-21T04:58:39;98242.53;;;4.13;100.00
51239;BME280;38154;47.548;18.828;2023-11-21T05:01:07;98245.25;;;4.22;100.00
51239;BME280;38154;47.548;18.828;2023-11-21T05:03:33;98248.78;;;4.27;100.00
51239;BME280;38154;47.548;18.828;2023-11-21T05:05:59;98236.91;;;4.35;100.00
51239;BME280;38154;47.548;18.828;2023-11-21T05:08:25;98236.16;;;4.41;100.00
51239;BME280;38154;47.548;18.828;2023-11-21T05:10:52;98232.78;;;4.46;100.00
51239;BME280;38154;47.548;18.828;2023-11-21T05:13:20;98226.00;;;4.52;100.00
51239;BME280;38154;47.548;18.828;2023-11-21T05:15:45;98225.28;;;4.62;100.00
51239;BME280;38154;47.548;18.828;2023-11-21T05:18:11;98233.22;;;4.73;100.00
51239;BME280;38154;47.548;18.828;2023-11-21T05:20:39;98236.97;;;4.93;100.00
51239;BME280;38154;47.548;18.828;2023-11-21T05:23:06;98247.56;;;5.10;100.00
51239;BME280;38154;47.548;18.828;2023-11-21T05:25:33;98251.94;;;5.16;100.00
51239;BME280;38154;47.548;18.828;2023-11-21T05:27:59;98254.44;;;5.08;100.00
51239;BME280;38154;47.548;18.828;2023-11-21T05:30:27;98241.44;;;5.04;100.00
51239;BME280;38154;47.548;18.828;2023-11-21T05:32:53;98244.75;;;4.95;100.00
51239;BME280;38154;47.548;18.828;2023-11-21T05:35:19;98246.31;;;4.85;100.00
51239;BME280;38154;47.548;18.828;2023-11-21T05:37:45;98244.56;;;4.84;100.00
51239;BME280;38154;47.548;18.828;2023-11-21T05:40:11;98255.72;;;4.80;100.00
51239;BME280;38154;47.548;18.828;2023-11-21T05:42:39;98251.69;;;4.99;100.00
51239;BME280;38154;47.548;18.828;2023-11-21T05:45:07;98257.75;;;5.02;100.00
51239;BME280;38154;47.548;18.828;2023-11-21T05:47:43;98248.28;;;5.00;100.00
51239;BME280;38154;47.548;18.828;2023-11-21T05:50:10;98251.53;;;4.88;100.00
51239;BME280;38154;47.548;18.828;2023-11-21T05:52:38;98259.38;;;4.93;100.00
51239;BME280;38154;47.548;18.828;2023-11-21T05:55:05;98274.97;;;5.00;100.00
51239;BME280;38154;47.548;18.828;2023-11-21T05:57:33;98286.16;;;4.99;100.00
51239;BME280;38154;47.548;18.828;2023-11-21T06:00:11;98281.66;;;4.86;100.00
51239;BME280;38154;47.548;18.828;2023-11-21T06:02:52;98282.97;;;4.64;100.00
51239;BME280;38154;47.548;18.828;2023-11-21T06:05:21;98286.22;;;4.52;100.00
51239;BME280;38154;47.548;18.828;2023-11-21T06:07:49;98287.13;;;4.53;100.00
51239;BME280;38154;47.548;18.828;2023-11-21T06:10:15;98284.81;;;4.70;100.00
51239;BME280;38154;47.548;18.828;2023-11-21T06:12:43;98292.75;;;4.82;100.00
51239;BME280;38154;47.548;18.828;2023-11-21T06:15:10;98302.22;;;4.81;100.00
51239;BME280;38154;47.548;18.828;2023-11-21T06:17:40;98308.72;;;5.10;100.00
51239;BME280;38154;47.548;18.828;2023-11-21T06:20:06;98323.53;;;5.22;100.00
51239;BME280;38154;47.548;18.828;2023-11-21T06:22:38;98338.87;;;5.12;100.00
51239;BME280;38154;47.548;18.828;2023-11-21T06:25:05;98341.19;;;4.95;100.00
51239;BME280;38154;47.548;18.828;2023-11-21T06:27:32;98348.91;;;4.92;100.00
51239;BME280;38154;47.548;18.828;2023-11-21T06:30:00;98351.44;;;4.88;100.00
51239;BME280;38154;47.548;18.828;2023-11-21T06:32:25;98353.94;;;4.83;100.00
51239;BME280;38154;47.548;18.828;2023-11-21T06:34:52;98356.47;;;4.81;100.00
51239;BME280;38154;47.548;18.828;2023-11-21T06:37:20;98353.88;;;4.80;100.00
51239;BME280;38154;47.548;18.828;2023-11-21T06:39:49;98357.41;;;4.85;100.00
51239;BME280;38154;47.548;18.828;2023-11-21T06:42:18;98358.19;;;4.82;100.00
51239;BME280;38154;47.548;18.828;2023-11-21T06:44:45;98354.75;;;4.82;100.00
51239;BME280;38154;47.548;18.828;2023-11-21T06:47:11;98363.37;;;4.82;100.00
51239;BME280;38154;47.548;18.828;2023-11-21T06:49:37;98365.31;;;4.96;100.00
51239;BME280;38154;47.548;18.828;2023-11-21T06:52:04;98368.81;;;4.98;100.00
51239;BME280;38154;47.548;18.828;2023-11-21T06:54:31;98366.16;;;4.93;100.00
51239;BME280;38154;47.548;18.828;2023-11-21T06:56:57;98368.84;;;5.01;100.00
51239;BME280;38154;47.548;18.828;2023-11-21T06:59:24;98368.97;;;5.09;100.00
51239;BME280;38154;47.548;18.828;2023-11-21T07:01:50;98367.25;;;5.09;100.00
51239;BME280;38154;47.548;18.828;2023-11-21T07:04:16;98358.75;;;5.15;100.00
51239;BME280;38154;47.548;18.828;2023-11-21T07:06:42;98363.97;;;5.16;100.00
51239;BME280;38154;47.548;18.828;2023-11-21T07:09:09;98374.34;;;5.19;100.00
51239;BME280;38154;47.548;18.828;2023-11-21T07:11:35;98374.47;;;5.29;100.00
51239;BME280;38154;47.548;18.828;2023-11-21T07:14:02;98377.16;;;5.35;100.00
51239;BME280;38154;47.548;18.828;2023-11-21T07:16:36;98375.50;;;5.38;100.00
51239;BME280;38154;47.548;18.828;2023-11-21T07:19:05;98375.63;;;5.48;100.00
51239;BME280;38154;47.548;18.828;2023-11-21T07:21:34;98374.88;;;5.53;100.00
51239;BME280;38154;47.548;18.828;2023-11-21T07:24:02;98380.94;;;5.57;100.00
51239;BME280;38154;47.548;18.828;2023-11-21T07:26:29;98386.13;;;5.57;100.00
51239;BME280;38154;47.548;18.828;2023-11-21T07:28:55;98387.88;;;5.61;100.00
51239;BME280;38154;47.548;18.828;2023-11-21T07:31:22;98382.69;;;5.60;100.00
51239;BME280;38154;47.548;18.828;2023-11-21T07:33:48;98387.94;;;5.64;100.00
51239;BME280;38154;47.548;18.828;2023-11-21T07:36:15;98378.47;;;5.66;100.00
51239;BME280;38154;47.548;18.828;2023-11-21T07:38:42;98394.19;;;5.79;100.00
51239;BME280;38154;47.548;18.828;2023-11-21T07:41:08;98388.16;;;5.80;100.00
51239;BME280;38154;47.548;18.828;2023-11-21T07:43:35;98383.84;;;5.79;100.00
51239;BME280;38154;47.548;18.828;2023-11-21T07:46:02;98382.97;;;5.80;100.00
51239;BME280;38154;47.548;18.828;2023-11-21T07:48:30;98384.81;;;5.87;100.00
51239;BME280;38154;47.548;18.828;2023-11-21T07:50:57;98384.87;;;5.93;100.00
51239;BME280;38154;47.548;18.828;2023-11-21T07:53:27;98386.75;;;6.00;100.00
51239;BME280;38154;47.548;18.828;2023-11-21T07:55:56;98379.09;;;6.09;100.00
51239;BME280;38154;47.548;18.828;2023-11-21T07:58:22;98375.69;;;6.12;100.00
51239;BME280;38154;47.548;18.828;2023-11-21T08:00:49;98373.94;;;6.11;100.00
51239;BME280;38154;47.548;18.828;2023-11-21T08:03:15;98358.44;;;6.12;100.00
51239;BME280;38154;47.548;18.828;2023-11-21T08:05:42;98361.19;;;6.26;100.00
51239;BME280;38154;47.548;18.828;2023-11-21T08:08:08;98363.03;;;6.35;100.00
51239;BME280;38154;47.548;18.828;2023-11-21T08:10:34;98364.88;;;6.45;100.00
51239;BME280;38154;47.548;18.828;2023-11-21T08:13:02;98371.03;;;6.58;100.00
51239;BME280;38154;47.548;18.828;2023-11-21T08:15:28;98356.41;;;6.60;100.00
51239;BME280;38154;47.548;18.828;2023-11-21T08:17:53;98366.78;;;6.65;100.00
51239;BME280;38154;47.548;18.828;2023-11-21T08:20:19;98357.41;;;6.78;100.00
51239;BME280;38154;47.548;18.828;2023-11-21T08:22:45;98354.91;;;6.85;100.00
51239;BME280;38154;47.548;18.828;2023-11-21T08:25:13;98348.06;;;6.95;100.00
51239;BME280;38154;47.548;18.828;2023-11-21T08:27:39;98355.91;;;7.01;100.00
51239;BME280;38154;47.548;18.828;2023-11-21T08:30:05;98345.56;;;7.04;100.00
51239;BME280;38154;47.548;18.828;2023-11-21T08:32:33;98350.81;;;7.11;100.00
51239;BME280;38154;47.548;18.828;2023-11-21T08:34:59;98355.09;;;7.09;100.00
51239;BME280;38154;47.548;18.828;2023-11-21T08:37:25;98353.41;;;7.15;100.00
51239;BME280;38154;47.548;18.828;2023-11-21T08:39:53;98353.47;;;7.21;100.00
51239;BME280;38154;47.548;18.828;2023-11-21T08:42:19;98355.25;;;7.29;100.00
51239;BME280;38154;47.548;18.828;2023-11-21T08:44:45;98355.25;;;7.29;100.00
51239;BME280;38154;47.548;18.828;2023-11-21T08:47:11;98364.75;;;7.27;100.00
51239;BME280;38154;47.548;18.828;2023-11-21T08:49:37;98356.09;;;7.23;100.00
51239;BME280;38154;47.548;18.828;2023-11-21T08:52:03;98357.03;;;7.33;100.00
51239;BME280;38154;47.548;18.828;2023-11-21T08:54:30;98356.13;;;7.32;100.00
51239;BME280;38154;47.548;18.828;2023-11-21T08:56:57;98362.19;;;7.28;100.00
51239;BME280;38154;47.548;18.828;2023-11-21T08:59:24;98355.28;;;7.30;100.00
51239;BME280;38154;47.548;18.828;2023-11-21T09:01:50;98358.72;;;7.32;100.00
51239;BME280;38154;47.548;18.828;2023-11-21T09:04:16;98357.00;;;7.30;100.00
51239;BME280;38154;47.548;18.828;2023-11-21T09:06:42;98360.44;;;7.27;100.00
51239;BME280;38154;47.548;18.828;2023-11-21T09:09:08;98364.75;;;7.27;100.00
51239;BME280;38154;47.548;18.828;2023-11-21T09:11:36;98363.91;;;7.26;100.00
51239;BME280;38154;47.548;18.828;2023-11-21T09:14:03;98366.56;;;7.38;100.00
51239;BME280;38154;47.548;18.828;2023-11-21T09:16:31;98364.06;;;7.49;100.00
51239;BME280;38154;47.548;18.828;2023-11-21T09:18:58;98364.06;;;7.48;100.00
51239;BME280;38154;47.548;18.828;2023-11-21T09:21:24;98361.44;;;7.46;100.00
51239;BME280;38154;47.548;18.828;2023-11-21T09:23:51;98362.34;;;7.51;100.00
51239;BME280;38154;47.548;18.828;2023-11-21T09:26:17;98360.69;;;7.61;100.00
51239;BME280;38154;47.548;18.828;2023-11-21T09:28:44;98356.38;;;7.65;100.00
51239;BME280;38154;47.548;18.828;2023-11-21T09:31:13;98362.50;;;7.74;100.00
51239;BME280;38154;47.548;18.828;2023-11-21T09:33:42;98355.59;;;7.79;100.00
51239;BME280;38154;47.548;18.828;2023-11-21T09:36:12;98352.94;;;7.70;100.00
51239;BME280;38154;47.548;18.828;2023-11-21T09:38:40;98346.03;;;7.69;100.00
51239;BME280;38154;47.548;18.828;2023-11-21T09:41:52;98337.44;;;7.86;100.00
51239;BME280;38154;47.548;18.828;2023-11-21T09:44:34;98339.19;;;7.87;100.00
51239;BME280;38154;47.548;18.828;2023-11-21T09:47:01;98339.19;;;7.87;100.00
51239;BME280;38154;47.548;18.828;2023-11-21T09:49:28;98339.16;;;7.82;100.00
51239;BME280;38154;47.548;18.828;2023-11-21T09:51:55;98331.44;;;7.90;100.00
51239;BME280;38154;47.548;18.828;2023-11-21T09:54:23;98321.97;;;7.99;100.00
51239;BME280;38154;47.548;18.828;2023-11-21T09:56:49;98325.44;;;8.06;100.00
51239;BME280;38154;47.548;18.828;2023-11-21T09:59:16;98324.59;;;8.10;100.00
51239;BME280;38154;47.548;18.828;2023-11-21T10:01:42;98315.97;;;8.14;100.00
51239;BME280;38154;47.548;18.828;2023-11-21T10:04:09;98316.84;;;8.20;100.00
51239;BME280;38154;47.548;18.828;2023-11-21T10:06:39;98319.44;;;8.26;100.00
51239;BME280;38154;47.548;18.828;2023-11-21T10:09:10;98318.63;;;8.31;100.00
51239;BME280;38154;47.548;18.828;2023-11-21T10:11:41;98311.69;;;8.41;100.00
51239;BME280;38154;47.548;18.828;2023-11-21T10:14:11;98302.22;;;8.43;100.00
51239;BME280;38154;47.548;18.828;2023-11-21T10:16:38;98307.38;;;8.42;100.00
51239;BME280;38154;47.548;18.828;2023-11-21T10:19:05;98311.69;;;8.33;100.00
51239;BME280;38154;47.548;18.828;2023-11-21T10:21:32;98309.09;;;8.33;100.00
51239;BME280;38154;47.548;18.828;2023-11-21T10:23:59;98306.44;;;8.24;100.00
51239;BME280;38154;47.548;18.828;2023-11-21T10:26:26;98307.34;;;8.32;100.00
51239;BME280;38154;47.548;18.828;2023-11-21T10:29:00;98298.75;;;8.44;100.00
51239;BME280;38154;47.548;18.828;2023-11-21T10:31:27;98304.00;;;8.60;100.00
51239;BME280;38154;47.548;18.828;2023-11-21T10:33:53;98303.13;;;8.79;100.00
51239;BME280;38154;47.548;18.828;2023-11-21T10:36:26;98303.13;;;8.82;100.00
51239;BME280;38154;47.548;18.828;2023-11-21T10:38:53;98305.75;;;9.10;100.00
51239;BME280;38154;47.548;18.828;2023-11-21T10:41:20;98308.34;;;9.25;100.00
51239;BME280;38154;47.548;18.828;2023-11-21T10:43:46;98304.84;;;9.29;100.00
51239;BME280;38154;47.548;18.828;2023-11-21T10:46:13;98304.84;;;9.34;100.00
51239;BME280;38154;47.548;18.828;2023-11-21T10:48:42;98311.75;;;9.40;100.00
51239;BME280;38154;47.548;18.828;2023-11-21T10:51:08;98313.47;;;9.52;100.00
51239;BME280;38154;47.548;18.828;2023-11-21T10:53:39;98307.41;;;9.60;100.00
51239;BME280;38154;47.548;18.828;2023-11-21T10:56:08;98309.97;;;9.66;100.00
51239;BME280;38154;47.548;18.828;2023-11-21T10:58:38;98303.03;;;9.72;100.00
51239;BME280;38154;47.548;18.828;2023-11-21T11:01:06;98302.13;;;9.83;100.00
51239;BME280;38154;47.548;18.828;2023-11-21T11:03:34;98293.44;;;9.84;100.00
51239;BME280;38154;47.548;18.828;2023-11-21T11:06:03;98295.13;;;9.93;100.00
51239;BME280;38154;47.548;18.828;2023-11-21T11:08:31;98289.00;;;10.11;100.00
51239;BME280;38154;47.548;18.828;2023-11-21T11:10:57;98289.91;;;10.06;100.00
51239;BME280;38154;47.548;18.828;2023-11-21T11:13:24;98287.31;;;10.02;100.00
51239;BME280;38154;47.548;18.828;2023-11-21T11:15:57;98282.94;;;10.08;100.00
51239;BME280;38154;47.548;18.828;2023-11-21T11:18:25;98288.13;;;10.12;100.00
51239;BME280;38154;47.548;18.828;2023-11-21T11:20:51;98276.81;;;10.18;100.00
51239;BME280;38154;47.548;18.828;2023-11-21T11:29:11;98270.72;;;10.19;100.00
51239;BME280;38154;47.548;18.828;2023-11-21T11:36:48;98265.56;;;10.05;100.00
51239;BME280;38154;47.548;18.828;2023-11-21T11:39:34;98267.28;;;10.14;100.00
51239;BME280;38154;47.548;18.828;2023-11-21T11:42:03;98259.50;;;10.08;100.00
51239;BME280;38154;47.548;18.828;2023-11-21T11:47:16;98269.94;;;9.95;100.00
51239;BME280;38154;47.548;18.828;2023-11-21T11:50:28;98262.19;;;9.89;100.00
51239;BME280;38154;47.548;18.828;2023-11-21T11:52:40;98262.13;;;9.95;100.00
51239;BME280;38154;47.548;18.828;2023-11-21T11:55:09;98265.69;;;9.79;100.00
51239;BME280;38154;47.548;18.828;2023-11-21T11:57:40;98263.09;;;9.73;100.00
51239;BME280;38154;47.548;18.828;2023-11-21T12:00:13;98261.38;;;9.70;100.00
51239;BME280;38154;47.548;18.828;2023-11-21T12:02:52;98254.44;;;9.74;100.00
51239;BME280;38154;47.548;18.828;2023-11-21T12:05:20;98250.94;;;9.81;100.00
51239;BME280;38154;47.548;18.828;2023-11-21T12:10:17;98263.91;;;9.90;100.00
51239;BME280;38154;47.548;18.828;2023-11-21T12:12:50;98265.63;;;9.91;100.00
51239;BME280;38154;47.548;18.828;2023-11-21T12:15:19;98258.72;;;9.84;100.00
51239;BME280;38154;47.548;18.828;2023-11-21T12:17:46;98261.28;;;9.93;100.00
51239;BME280;38154;47.548;18.828;2023-11-21T12:20:13;98260.41;;;9.99;100.00
51239;BME280;38154;47.548;18.828;2023-11-21T12:22:44;98257.75;;;10.07;100.00
51239;BME280;38154;47.548;18.828;2023-11-21T12:25:10;98256.88;;;10.14;100.00
51239;BME280;38154;47.548;18.828;2023-11-21T12:27:40;98253.44;;;10.01;100.00
51239;BME280;38154;47.548;18.828;2023-11-21T12:30:07;98252.62;;;9.94;100.00
51239;BME280;38154;47.548;18.828;2023-11-21T12:32:42;98254.38;;;9.88;100.00
51239;BME280;38154;47.548;18.828;2023-11-21T12:35:09;98257.84;;;9.87;100.00
51239;BME280;38154;47.548;18.828;2023-11-21T12:37:38;98255.22;;;9.90;100.00
51239;BME280;38154;47.548;18.828;2023-11-21T12:40:06;98253.47;;;9.95;100.00
51239;BME280;38154;47.548;18.828;2023-11-21T12:42:32;98249.13;;;9.95;100.00
51239;BME280;38154;47.548;18.828;2023-11-21T12:45:08;98248.13;;;10.21;100.00
51239;BME280;38154;47.548;18.828;2023-11-21T12:47:35;98242.09;;;10.10;100.00
51239;BME280;38154;47.548;18.828;2023-11-21T12:50:02;98248.25;;;10.01;100.00
51239;BME280;38154;47.548;18.828;2023-11-21T12:52:28;98244.69;;;10.17;100.00
51239;BME280;38154;47.548;18.828;2023-11-21T12:54:54;98236.91;;;10.05;100.00
51239;BME280;38154;47.548;18.828;2023-11-21T12:57:25;98233.47;;;10.03;100.00
51239;BME280;38154;47.548;18.828;2023-11-21T12:59:57;98246.56;;;9.92;100.00
51239;BME280;38154;47.548;18.828;2023-11-21T13:02:26;98239.56;;;9.99;100.00
51239;BME280;38154;47.548;18.828;2023-11-21T13:04:53;98249.94;;;10.03;100.00
51239;BME280;38154;47.548;18.828;2023-11-21T13:07:19;98247.28;;;10.17;100.00
51239;BME280;38154;47.548;18.828;2023-11-21T13:09:46;98248.22;;;10.02;100.00